createdAt,value
2023-03-14T00:00:39.937Z,2.07
2023-03-14T00:03:07.972Z,2.17
2023-03-14T00:05:37.697Z,2.20
2023-03-14T00:08:06.292Z,2.20
2023-03-14T00:10:34.355Z,2.50
2023-03-14T00:13:02.339Z,3.30
2023-03-14T00:15:30.293Z,2.27
2023-03-14T00:17:58.456Z,2.40
2023-03-14T00:20:26.576Z,2.60
2023-03-14T00:22:55.974Z,2.40
2023-03-14T00:25:24.051Z,2.00
2023-03-14T00:27:53.030Z,1.80
2023-03-14T00:30:21.430Z,2.60
2023-03-14T00:32:49.541Z,1.70
2023-03-14T00:35:18.079Z,2.10
2023-03-14T00:37:46.060Z,2.33
2023-03-14T00:40:15.799Z,2.30
2023-03-14T00:42:43.795Z,2.17
2023-03-14T00:45:12.530Z,2.40
2023-03-14T00:47:40.593Z,3.00
2023-03-14T00:50:10.917Z,1.97
2023-03-14T00:52:40.268Z,2.33
2023-03-14T00:55:08.836Z,1.80
2023-03-14T00:57:38.222Z,1.87
2023-03-14T01:00:09.190Z,1.67
2023-03-14T01:02:37.259Z,1.80
2023-03-14T01:05:05.941Z,1.73
2023-03-14T01:07:33.946Z,2.67
2023-03-14T01:10:01.946Z,2.10
2023-03-14T01:12:30.168Z,5.73
2023-03-14T01:14:59.742Z,9.50
2023-03-14T01:17:27.860Z,3.93
2023-03-14T01:19:55.907Z,6.20
2023-03-14T01:22:24.174Z,11.20
2023-03-14T01:24:52.134Z,2.30
2023-03-14T01:27:20.214Z,1.77
2023-03-14T01:29:48.709Z,1.90
2023-03-14T01:32:18.938Z,2.00
2023-03-14T01:34:47.051Z,1.67
2023-03-14T01:37:15.240Z,1.60
2023-03-14T01:39:43.329Z,1.73
2023-03-14T01:42:11.322Z,1.73
2023-03-14T01:44:51.263Z,1.80
2023-03-14T01:47:20.991Z,1.40
2023-03-14T01:49:53.963Z,1.40
2023-03-14T01:52:26.912Z,1.60
2023-03-14T01:55:00.863Z,1.77
2023-03-14T01:57:34.130Z,1.53
2023-03-14T02:00:11.159Z,1.47
2023-03-14T02:02:44.390Z,1.30
2023-03-14T02:05:16.644Z,1.20
2023-03-14T02:07:50.804Z,1.47
2023-03-14T02:10:26.565Z,1.57
2023-03-14T02:12:57.924Z,1.90
2023-03-14T02:15:44.878Z,1.13
2023-03-14T02:18:34.910Z,1.50
2023-03-14T02:21:49.069Z,1.10
2023-03-14T02:24:24.974Z,1.20
2023-03-14T02:27:09.585Z,1.47
2023-03-14T02:29:47.978Z,1.60
2023-03-14T02:32:18.101Z,1.20
2023-03-14T02:34:52.462Z,0.90
2023-03-14T02:37:23.176Z,1.07
2023-03-14T02:39:51.495Z,1.03
2023-03-14T02:42:22.589Z,1.63
2023-03-14T02:44:56.009Z,1.00
2023-03-14T02:47:29.939Z,1.10
2023-03-14T02:50:05.839Z,1.40
2023-03-14T02:52:33.983Z,1.30
2023-03-14T02:55:02.006Z,1.50
2023-03-14T02:57:31.478Z,1.30
2023-03-14T03:00:00.877Z,1.30
2023-03-14T03:02:34.019Z,1.37
2023-03-14T03:05:02.106Z,1.63
2023-03-14T03:07:30.269Z,1.00
2023-03-14T03:09:59.620Z,1.50
2023-03-14T03:12:27.771Z,1.60
2023-03-14T03:14:57.220Z,2.13
2023-03-14T03:17:25.207Z,2.40
2023-03-14T03:19:53.262Z,1.83
2023-03-14T03:22:21.236Z,1.50
2023-03-14T03:24:49.280Z,1.20
2023-03-14T03:27:17.297Z,1.37
2023-03-14T03:29:45.571Z,1.20
2023-03-14T03:32:15.227Z,1.33
2023-03-14T03:34:43.258Z,1.70
2023-03-14T03:37:11.253Z,1.67
2023-03-14T03:39:42.531Z,1.80
2023-03-14T03:42:10.686Z,1.40
2023-03-14T03:44:38.891Z,1.87
2023-03-14T03:47:07.022Z,1.83
2023-03-14T03:49:36.573Z,1.67
2023-03-14T03:52:05.036Z,2.07
2023-03-14T03:54:33.132Z,2.20
2023-03-14T03:57:03.338Z,1.53
2023-03-14T03:59:31.532Z,1.60
2023-03-14T04:01:59.676Z,2.23
2023-03-14T04:04:27.928Z,2.40
2023-03-14T04:06:57.498Z,2.40
2023-03-14T04:09:25.480Z,1.90
2023-03-14T04:12:12.020Z,2.00
2023-03-14T04:15:02.964Z,2.00
2023-03-14T04:17:32.218Z,1.70
2023-03-14T04:20:00.318Z,1.63
2023-03-14T04:22:37.529Z,2.10
2023-03-14T04:25:06.427Z,1.87
2023-03-14T04:27:38.164Z,1.80
2023-03-14T04:30:12.900Z,1.60
2023-03-14T04:32:49.781Z,1.77
2023-03-14T04:35:18.273Z,1.73
2023-03-14T04:37:50.072Z,2.73
2023-03-14T04:40:19.156Z,1.70
2023-03-14T04:42:48.044Z,1.80
2023-03-14T04:45:17.076Z,1.83
2023-03-14T04:47:45.674Z,2.10
2023-03-14T04:50:18.808Z,1.60
2023-03-14T04:52:48.874Z,2.30
2023-03-14T04:55:17.356Z,2.20
2023-03-14T04:57:45.461Z,2.53
2023-03-14T05:00:14.183Z,2.40
2023-03-14T05:02:49.926Z,1.70
2023-03-14T05:05:40.493Z,1.50
2023-03-14T05:08:40.106Z,1.50
2023-03-14T05:11:28.496Z,2.50
2023-03-14T05:14:17.229Z,1.47
2023-03-14T05:17:03.654Z,1.30
2023-03-14T05:19:57.741Z,1.33
2023-03-14T05:22:37.179Z,1.70
2023-03-14T05:25:36.011Z,1.13
2023-03-14T05:28:14.654Z,1.10
2023-03-14T05:30:53.248Z,1.27
2023-03-14T05:33:34.592Z,1.20
2023-03-14T05:36:31.716Z,1.00
2023-03-14T05:39:16.401Z,1.40
2023-03-14T05:41:56.866Z,0.90
2023-03-14T05:44:54.012Z,0.87
2023-03-14T05:47:45.005Z,0.90
2023-03-14T05:50:39.123Z,0.90
2023-03-14T05:53:24.625Z,0.90
2023-03-14T05:56:15.582Z,0.80
2023-03-14T05:59:04.222Z,1.07
2023-03-14T06:01:41.448Z,0.80
2023-03-14T06:04:15.562Z,0.70
2023-03-14T06:06:45.777Z,0.90
2023-03-14T06:09:14.512Z,0.80
2023-03-14T06:11:44.738Z,0.83
2023-03-14T06:14:15.295Z,0.80
2023-03-14T06:16:46.566Z,0.70
2023-03-14T06:19:14.666Z,0.80
2023-03-14T06:21:43.746Z,0.70
2023-03-14T06:24:12.002Z,0.97
2023-03-14T06:26:44.442Z,0.97
2023-03-14T06:29:14.391Z,1.00
2023-03-14T06:31:44.302Z,0.70
2023-03-14T06:34:15.230Z,0.90
2023-03-14T06:36:43.225Z,1.00
2023-03-14T06:39:11.571Z,0.80
2023-03-14T06:41:44.291Z,0.90
2023-03-14T06:44:12.824Z,1.00
2023-03-14T06:46:40.979Z,0.80
2023-03-14T06:49:10.758Z,0.90
2023-03-14T06:51:38.789Z,1.03
2023-03-14T06:54:08.962Z,1.10
2023-03-14T06:56:37.542Z,0.80
2023-03-14T06:59:05.891Z,0.90
2023-03-14T07:01:36.036Z,0.90
2023-03-14T07:04:11.254Z,0.90
2023-03-14T07:06:45.232Z,0.80
2023-03-14T07:09:14.233Z,0.80
2023-03-14T07:11:47.145Z,0.70
2023-03-14T07:14:15.695Z,0.77
2023-03-14T07:16:43.799Z,0.80
2023-03-14T07:19:13.279Z,0.90
2023-03-14T07:21:41.342Z,0.80
2023-03-14T07:24:13.960Z,0.70
2023-03-14T07:26:42.192Z,0.80
2023-03-14T07:29:10.244Z,0.80
2023-03-14T07:31:39.519Z,0.70
2023-03-14T07:34:08.200Z,0.70
2023-03-14T07:36:41.619Z,0.77
2023-03-14T07:39:10.114Z,0.90
2023-03-14T07:41:47.706Z,0.90
2023-03-14T07:44:27.918Z,0.90
2023-03-14T07:46:56.022Z,0.90
2023-03-14T07:49:24.105Z,1.73
2023-03-14T07:51:53.465Z,1.20
2023-03-14T07:54:21.540Z,0.70
2023-03-14T07:56:49.792Z,0.77
2023-03-14T07:59:17.877Z,0.80
2023-03-14T08:01:45.974Z,0.77
2023-03-14T08:04:14.455Z,0.87
2023-03-14T08:06:42.523Z,0.80
2023-03-14T08:09:11.936Z,0.83
2023-03-14T08:11:40.045Z,1.00
2023-03-14T08:14:08.149Z,1.00
2023-03-14T08:16:36.247Z,0.90
2023-03-14T08:19:04.524Z,0.73
2023-03-14T08:21:32.980Z,1.00
2023-03-14T08:24:01.641Z,0.73
2023-03-14T08:26:31.049Z,0.80
2023-03-14T08:28:59.102Z,0.80
2023-03-14T08:31:27.680Z,0.70
2023-03-14T08:33:56.005Z,0.80
2023-03-14T08:36:24.356Z,0.80
2023-03-14T08:38:52.476Z,1.40
2023-03-14T08:41:20.537Z,3.87
2023-03-14T08:43:49.909Z,0.80
2023-03-14T08:46:17.975Z,0.90
2023-03-14T08:48:46.080Z,0.77
2023-03-14T08:51:15.953Z,0.97
2023-03-14T08:53:45.833Z,0.90
2023-03-14T08:56:13.873Z,0.83
2023-03-14T08:58:42.446Z,0.77
2023-03-14T09:01:12.804Z,1.20
2023-03-14T09:03:40.984Z,1.00
2023-03-14T09:06:12.259Z,0.90
2023-03-14T09:08:40.277Z,0.90
2023-03-14T09:11:10.512Z,0.90
2023-03-14T09:13:38.583Z,0.80
2023-03-14T09:16:08.017Z,0.80
2023-03-14T09:18:37.582Z,0.83
2023-03-14T09:21:06.226Z,0.90
2023-03-14T09:23:34.627Z,0.80
2023-03-14T09:26:03.147Z,0.80
2023-03-14T09:28:31.401Z,0.80
2023-03-14T09:30:59.421Z,1.00
2023-03-14T09:33:27.508Z,0.80
2023-03-14T09:36:00.987Z,0.80
2023-03-14T09:38:29.275Z,0.80
2023-03-14T09:41:00.049Z,1.60
2023-03-14T09:43:30.147Z,0.90
2023-03-14T09:46:00.480Z,1.20
2023-03-14T09:48:32.016Z,0.90
2023-03-14T09:51:04.769Z,1.10
2023-03-14T09:53:39.655Z,0.90
2023-03-14T09:56:15.343Z,1.20
2023-03-14T09:58:46.320Z,1.27
2023-03-14T10:01:19.970Z,1.37
2023-03-14T10:03:48.991Z,1.30
2023-03-14T10:06:18.397Z,1.00
2023-03-14T10:08:47.650Z,1.23
2023-03-14T10:11:17.928Z,1.30
2023-03-14T10:13:51.368Z,1.37
2023-03-14T10:16:30.115Z,1.23
2023-03-14T10:19:04.339Z,1.20
2023-03-14T10:21:39.338Z,1.50
2023-03-14T10:24:19.337Z,2.30
2023-03-14T10:26:50.652Z,1.80
2023-03-14T10:29:18.973Z,1.90
2023-03-14T10:31:56.082Z,2.07
2023-03-14T10:34:26.910Z,2.30
2023-03-14T10:36:57.867Z,2.00
2023-03-14T10:39:47.246Z,1.87
2023-03-14T10:42:21.230Z,2.00
2023-03-14T10:44:56.911Z,2.10
2023-03-14T10:47:27.342Z,1.70
2023-03-14T10:49:55.714Z,1.90
2023-03-14T10:52:31.506Z,1.67
2023-03-14T10:55:13.342Z,2.00
2023-03-14T10:57:41.545Z,2.10
2023-03-14T11:00:17.907Z,1.73
2023-03-14T11:03:00.251Z,2.00
2023-03-14T11:05:33.916Z,1.30
2023-03-14T11:08:09.719Z,1.83
2023-03-14T11:10:43.782Z,1.10
2023-03-14T11:13:20.230Z,1.10
2023-03-14T11:15:56.914Z,1.10
2023-03-14T11:18:50.223Z,1.30
2023-03-14T11:21:25.423Z,1.20
2023-03-14T11:24:19.241Z,2.20
2023-03-14T11:26:56.708Z,2.23
2023-03-14T11:29:31.525Z,2.83
2023-03-14T11:32:03.934Z,2.10
2023-03-14T11:34:40.701Z,2.60
2023-03-14T11:37:15.746Z,2.50
2023-03-14T11:39:53.765Z,2.80
2023-03-14T11:42:22.913Z,2.83
2023-03-14T11:44:51.927Z,0.80
2023-03-14T11:47:23.544Z,1.00
2023-03-14T11:49:55.725Z,0.87
2023-03-14T11:52:29.210Z,1.10
2023-03-14T11:55:02.704Z,1.00
2023-03-14T11:57:30.796Z,1.03
2023-03-14T12:00:05.720Z,1.00
2023-03-14T12:02:50.949Z,1.10
2023-03-14T12:05:41.756Z,1.10
2023-03-14T12:08:33.348Z,1.40
2023-03-14T12:11:06.398Z,1.63
2023-03-14T12:13:38.251Z,1.60
2023-03-14T12:16:08.905Z,1.27
2023-03-14T12:18:40.056Z,1.73
2023-03-14T12:21:10.288Z,3.03
2023-03-14T12:23:43.312Z,1.70
2023-03-14T12:26:18.929Z,1.40
2023-03-14T12:28:52.238Z,1.70
2023-03-14T12:31:40.642Z,1.20
2023-03-14T12:34:30.945Z,1.40
2023-03-14T12:37:14.293Z,1.43
2023-03-14T12:39:49.253Z,8.90
2023-03-14T12:42:29.651Z,1.53
2023-03-14T12:45:23.096Z,1.67
2023-03-14T12:47:57.294Z,1.57
2023-03-14T12:50:34.186Z,1.57
2023-03-14T12:53:37.018Z,1.53
2023-03-14T12:56:13.484Z,1.40
2023-03-14T12:58:50.230Z,1.10
2023-03-14T13:01:20.373Z,1.27
2023-03-14T13:03:54.558Z,1.27
2023-03-14T13:06:48.960Z,1.53
2023-03-14T13:09:53.005Z,1.60
2023-03-14T13:12:28.795Z,1.57
2023-03-14T13:15:01.918Z,1.53
2023-03-14T13:17:36.523Z,1.90
2023-03-14T13:20:13.987Z,1.33
2023-03-14T13:22:49.042Z,1.43
2023-03-14T13:25:19.371Z,1.27
2023-03-14T13:27:47.609Z,1.27
2023-03-14T13:30:20.506Z,1.77
2023-03-14T13:32:50.426Z,1.73
2023-03-14T13:35:20.975Z,1.57
2023-03-14T13:37:50.069Z,1.67
2023-03-14T13:40:27.802Z,1.80
2023-03-14T13:43:12.318Z,1.40
2023-03-14T13:45:52.157Z,1.50
2023-03-14T13:48:20.886Z,1.20
2023-03-14T13:50:55.796Z,1.17
2023-03-14T13:53:26.637Z,1.67
2023-03-14T13:55:55.355Z,1.87
2023-03-14T13:58:26.483Z,2.07
2023-03-14T14:01:02.986Z,2.07
2023-03-14T14:03:34.214Z,2.30
2023-03-14T14:06:02.605Z,2.40
2023-03-14T14:08:31.271Z,1.50
2023-03-14T14:11:05.329Z,2.60
2023-03-14T14:13:36.217Z,2.73
2023-03-14T14:16:06.551Z,2.60
2023-03-14T14:18:36.224Z,2.77
2023-03-14T14:21:05.137Z,3.13
2023-03-14T14:23:33.401Z,2.50
2023-03-14T14:26:01.869Z,3.83
2023-03-14T14:28:31.519Z,2.70
2023-03-14T14:31:07.234Z,4.43
2023-03-14T14:33:43.596Z,3.90
2023-03-14T14:36:22.678Z,3.70
2023-03-14T14:39:00.956Z,3.50
2023-03-14T14:41:31.863Z,3.40
2023-03-14T14:44:01.376Z,3.27
2023-03-14T14:46:34.562Z,3.33
2023-03-14T14:49:07.390Z,4.10
2023-03-14T14:51:40.585Z,3.67
2023-03-14T14:54:17.648Z,2.63
2023-03-14T14:56:51.456Z,2.80
2023-03-14T14:59:29.782Z,3.60
2023-03-14T15:02:00.754Z,5.03
2023-03-14T15:04:31.867Z,4.20
2023-03-14T15:06:59.952Z,4.27
2023-03-14T15:09:28.028Z,3.27
2023-03-14T15:11:56.036Z,3.60
2023-03-14T15:14:24.097Z,3.53
2023-03-14T15:16:52.664Z,3.40
2023-03-14T15:19:26.585Z,2.80
2023-03-14T15:21:55.253Z,3.10
2023-03-14T15:24:23.852Z,3.50
2023-03-14T15:26:52.044Z,3.30
2023-03-14T15:29:20.134Z,2.97
2023-03-14T15:31:48.363Z,3.23
2023-03-14T15:34:17.585Z,3.17
2023-03-14T15:36:46.993Z,2.60
2023-03-14T15:39:14.997Z,3.13
2023-03-14T15:41:43.062Z,2.30
2023-03-14T15:44:11.077Z,2.70
2023-03-14T15:46:39.117Z,4.40
2023-03-14T15:49:07.171Z,3.77
2023-03-14T15:51:35.195Z,2.40
2023-03-14T15:54:04.670Z,4.03
2023-03-14T15:56:32.950Z,3.27
2023-03-14T15:59:01.216Z,4.20
2023-03-14T16:01:29.438Z,2.50
2023-03-14T16:03:57.548Z,3.50
2023-03-14T16:06:25.623Z,3.80
2023-03-14T16:08:53.659Z,3.50
2023-03-14T16:11:23.165Z,2.97
2023-03-14T16:13:51.700Z,3.10
2023-03-14T16:16:20.279Z,4.03
2023-03-14T16:18:48.674Z,3.80
2023-03-14T16:21:18.600Z,3.93
2023-03-14T16:23:47.386Z,2.60
2023-03-14T16:26:17.196Z,4.63
2023-03-14T16:28:47.829Z,3.47
2023-03-14T16:31:18.029Z,2.97
2023-03-14T16:33:46.517Z,4.07
2023-03-14T16:36:15.862Z,3.13
2023-03-14T16:38:46.003Z,3.40
2023-03-14T16:41:16.015Z,2.70
2023-03-14T16:43:44.668Z,2.33
2023-03-14T16:46:17.567Z,2.30
2023-03-14T16:48:46.849Z,2.07
2023-03-14T16:51:16.352Z,2.13
2023-03-14T16:53:44.590Z,2.50
2023-03-14T16:56:13.344Z,3.17
2023-03-14T16:58:41.614Z,2.20
2023-03-14T17:01:11.567Z,1.90
2023-03-14T17:03:42.959Z,2.00
2023-03-14T17:06:13.534Z,2.63
2023-03-14T17:08:41.816Z,2.23
2023-03-14T17:11:10.760Z,2.30
2023-03-14T17:13:39.413Z,1.80
2023-03-14T17:16:07.868Z,2.63
2023-03-14T17:18:37.608Z,1.83
2023-03-14T17:21:07.709Z,2.03
2023-03-14T17:23:38.453Z,1.80
2023-03-14T17:26:06.909Z,1.40
2023-03-14T17:28:35.555Z,1.50
2023-03-14T17:31:08.240Z,1.60
2023-03-14T17:33:36.828Z,2.20
2023-03-14T17:36:07.893Z,2.47
2023-03-14T17:38:36.724Z,1.80
2023-03-14T17:41:05.155Z,2.23
2023-03-14T17:43:33.955Z,1.77
2023-03-14T17:46:06.133Z,1.60
2023-03-14T17:48:34.235Z,2.00
2023-03-14T17:51:02.516Z,1.90
2023-03-14T17:53:32.039Z,1.80
2023-03-14T17:56:00.091Z,2.00
2023-03-14T17:58:28.235Z,1.87
2023-03-14T18:00:56.757Z,1.97
2023-03-14T18:03:25.300Z,1.93
2023-03-14T18:05:53.345Z,2.73
2023-03-14T18:08:21.638Z,2.20
2023-03-14T18:10:55.170Z,2.73
2023-03-14T18:13:23.222Z,2.10
2023-03-14T18:15:52.255Z,2.90
2023-03-14T18:18:20.935Z,1.90
2023-03-14T18:20:52.508Z,1.80
2023-03-14T18:23:21.741Z,1.90
2023-03-14T18:25:51.659Z,1.97
2023-03-14T18:28:21.120Z,2.00
2023-03-14T18:30:52.516Z,2.63
2023-03-14T18:33:22.063Z,2.40
2023-03-14T18:35:52.151Z,2.57
2023-03-14T18:38:20.638Z,1.77
2023-03-14T18:40:50.031Z,2.00
2023-03-14T18:43:18.037Z,2.53
2023-03-14T18:45:46.050Z,2.37
2023-03-14T18:48:14.192Z,2.10
2023-03-14T18:50:42.942Z,2.07
2023-03-14T18:53:11.020Z,2.70
2023-03-14T18:55:39.194Z,2.57
2023-03-14T18:58:08.671Z,2.37
2023-03-14T19:00:37.456Z,3.37
2023-03-14T19:03:05.924Z,2.27
2023-03-14T19:05:33.932Z,2.63
2023-03-14T19:08:02.835Z,2.30
2023-03-14T19:10:33.384Z,2.87
2023-03-14T19:13:01.529Z,3.23
2023-03-14T19:15:30.997Z,2.60
2023-03-14T19:17:59.064Z,2.40
2023-03-14T19:20:27.336Z,2.00
2023-03-14T19:22:58.153Z,2.27
2023-03-14T19:25:26.291Z,2.43
2023-03-14T19:27:54.280Z,2.33
2023-03-14T19:30:22.817Z,2.13
2023-03-14T19:32:52.396Z,2.10
2023-03-14T19:35:20.612Z,2.67
2023-03-14T19:37:48.750Z,2.30
2023-03-14T19:40:17.298Z,2.10
2023-03-14T19:42:45.334Z,2.03
2023-03-14T19:45:13.400Z,2.17
2023-03-14T19:47:41.426Z,3.20
2023-03-14T19:50:12.224Z,3.77
2023-03-14T19:52:45.529Z,4.20
2023-03-14T19:55:13.693Z,1.97
2023-03-14T19:57:42.097Z,2.10
2023-03-14T20:00:16.759Z,3.07
2023-03-14T20:02:44.835Z,1.90
2023-03-14T20:05:14.492Z,2.00
2023-03-14T20:07:42.645Z,2.50
2023-03-14T20:10:12.072Z,2.00
2023-03-14T20:12:40.684Z,1.60
2023-03-14T20:15:10.623Z,2.23
2023-03-14T20:17:38.755Z,2.20
2023-03-14T20:20:09.357Z,2.00
2023-03-14T20:22:39.156Z,2.87
2023-03-14T20:25:08.336Z,2.17
2023-03-14T20:27:36.857Z,2.20
2023-03-14T20:30:07.706Z,3.57
2023-03-14T20:32:35.863Z,4.17
2023-03-14T20:35:04.376Z,4.17
2023-03-14T20:37:32.755Z,3.50
2023-03-14T20:40:02.270Z,2.50
2023-03-14T20:42:30.865Z,3.97
2023-03-14T20:44:58.917Z,2.47
2023-03-14T20:47:27.286Z,2.57
2023-03-14T20:49:55.445Z,2.50
2023-03-14T20:52:23.665Z,3.47
2023-03-14T20:54:51.674Z,2.20
2023-03-14T20:57:21.139Z,2.17
2023-03-14T20:59:49.246Z,2.87
2023-03-14T21:02:17.936Z,4.03
2023-03-14T21:04:46.227Z,3.40
2023-03-14T21:07:14.453Z,3.70
2023-03-14T21:09:42.432Z,3.10
2023-03-14T21:12:10.454Z,2.70
2023-03-14T21:14:39.832Z,2.83
2023-03-14T21:17:07.941Z,3.00
2023-03-14T21:19:36.028Z,3.03
2023-03-14T21:22:06.596Z,2.27
2023-03-14T21:24:35.365Z,2.40
2023-03-14T21:27:03.586Z,3.40
2023-03-14T21:29:31.609Z,2.27
2023-03-14T21:32:01.004Z,2.40
2023-03-14T21:34:30.538Z,2.60
2023-03-14T21:36:58.563Z,2.67
2023-03-14T21:39:26.661Z,2.60
2023-03-14T21:41:54.697Z,4.30
2023-03-14T21:44:22.998Z,2.60
2023-03-14T21:46:51.450Z,3.17
2023-03-14T21:49:20.920Z,2.80
2023-03-14T21:51:49.026Z,2.80
2023-03-14T21:54:17.974Z,2.50
2023-03-14T21:56:46.618Z,2.60
2023-03-14T21:59:15.471Z,2.70
2023-03-14T22:01:43.622Z,2.63
2023-03-14T22:04:11.704Z,3.60
2023-03-14T22:06:41.090Z,2.53
2023-03-14T22:09:09.163Z,3.80
2023-03-14T22:11:37.179Z,3.00
2023-03-14T22:14:05.166Z,3.33
2023-03-14T22:16:33.251Z,3.80
2023-03-14T22:19:01.431Z,2.90
2023-03-14T22:21:29.423Z,3.80
2023-03-14T22:23:58.805Z,2.57
2023-03-14T22:26:26.798Z,3.13
2023-03-14T22:28:54.795Z,3.10
2023-03-14T22:31:22.845Z,3.47
2023-03-14T22:33:50.834Z,2.60
2023-03-14T22:36:18.843Z,3.50
2023-03-14T22:38:46.899Z,3.03
2023-03-14T22:41:16.367Z,2.90
2023-03-14T22:43:44.315Z,4.13
2023-03-14T22:46:12.384Z,3.00
2023-03-14T22:48:40.444Z,3.20
2023-03-14T22:51:09.470Z,9.63
2023-03-14T22:53:38.037Z,14.67
2023-03-14T22:56:07.581Z,8.20
2023-03-14T22:58:37.772Z,8.07
2023-03-14T23:01:06.418Z,15.97
2023-03-14T23:03:34.608Z,4.37
2023-03-14T23:06:02.703Z,4.80
2023-03-14T23:08:33.057Z,5.27
2023-03-14T23:11:02.518Z,5.27
2023-03-14T23:13:31.369Z,4.67
2023-03-14T23:16:01.139Z,5.47
2023-03-14T23:18:29.814Z,4.70
2023-03-14T23:21:07.788Z,4.90
2023-03-14T23:23:35.936Z,5.20
2023-03-14T23:26:04.194Z,6.17
2023-03-14T23:28:32.423Z,4.83
2023-03-14T23:31:06.249Z,5.20
2023-03-14T23:33:35.903Z,4.50
2023-03-14T23:36:05.090Z,4.07
2023-03-14T23:38:34.360Z,4.90
2023-03-14T23:41:06.348Z,5.30
2023-03-14T23:44:01.695Z,5.23
2023-03-14T23:46:31.913Z,7.57
2023-03-14T23:48:59.969Z,5.97
2023-03-14T23:51:28.010Z,5.53
2023-03-14T23:53:56.112Z,5.17
2023-03-14T23:56:24.235Z,7.53
2023-03-14T23:58:53.925Z,7.03
